sensor_id;sensor_type;location;lat;lon;timestamp;pressure;altitude;pressure_sealevel;temperature
18161;BMP280;9205;52.032;4.314;2023-06-26T00:00:09;101179.03;;;24.48
18161;BMP280;9205;52.032;4.314;2023-06-26T00:02:37;101181.25;;;24.42
18161;BMP280;9205;52.032;4.314;2023-06-26T00:05:05;101181.69;;;24.36
18161;BMP280;9205;52.032;4.314;2023-06-26T00:07:33;101184.97;;;24.27
18161;BMP280;9205;52.032;4.314;2023-06-26T00:10:01;101191.34;;;24.10
18161;BMP280;9205;52.032;4.314;2023-06-26T00:12:30;101194.81;;;23.98
18161;BMP280;9205;52.032;4.314;2023-06-26T00:14:59;101202.19;;;23.92
18161;BMP280;9205;52.032;4.314;2023-06-26T00:17:26;101202.94;;;23.81
18161;BMP280;9205;52.032;4.314;2023-06-26T00:19:54;101197.16;;;23.78
18161;BMP280;9205;52.032;4.314;2023-06-26T00:22:22;101196.31;;;23.65
18161;BMP280;9205;52.032;4.314;2023-06-26T00:24:49;101190.59;;;23.60
18161;BMP280;9205;52.032;4.314;2023-06-26T00:27:16;101204.31;;;23.50
18161;BMP280;9205;52.032;4.314;2023-06-26T00:29:44;101208.38;;;23.41
18161;BMP280;9205;52.032;4.314;2023-06-26T00:32:13;101214.50;;;23.40
18161;BMP280;9205;52.032;4.314;2023-06-26T00:34:41;101199.06;;;23.39
18161;BMP280;9205;52.032;4.314;2023-06-26T00:37:08;101203.00;;;23.32
18161;BMP280;9205;52.032;4.314;2023-06-26T00:39:36;101212.09;;;23.25
18161;BMP280;9205;52.032;4.314;2023-06-26T00:42:03;101217.22;;;23.26
18161;BMP280;9205;52.032;4.314;2023-06-26T00:44:31;101207.78;;;23.25
18161;BMP280;9205;52.032;4.314;2023-06-26T00:46:58;101207.97;;;23.22
18161;BMP280;9205;52.032;4.314;2023-06-26T00:49:28;101217.63;;;23.20
18161;BMP280;9205;52.032;4.314;2023-06-26T00:51:56;101211.09;;;23.27
18161;BMP280;9205;52.032;4.314;2023-06-26T00:54:24;101211.78;;;23.17
18161;BMP280;9205;52.032;4.314;2023-06-26T00:56:52;101216.16;;;23.16
18161;BMP280;9205;52.032;4.314;2023-06-26T00:59:19;101217.94;;;23.16
18161;BMP280;9205;52.032;4.314;2023-06-26T01:01:47;101210.22;;;23.14
18161;BMP280;9205;52.032;4.314;2023-06-26T01:04:15;101198.84;;;23.17
18161;BMP280;9205;52.032;4.314;2023-06-26T01:06:49;101207.25;;;23.08
18161;BMP280;9205;52.032;4.314;2023-06-26T01:09:19;101212.38;;;22.95
18161;BMP280;9205;52.032;4.314;2023-06-26T01:11:49;101220.16;;;22.95
18161;BMP280;9205;52.032;4.314;2023-06-26T01:14:17;101221.91;;;22.95
18161;BMP280;9205;52.032;4.314;2023-06-26T01:16:46;101222.41;;;22.88
18161;BMP280;9205;52.032;4.314;2023-06-26T01:19:23;101226.75;;;22.87
18161;BMP280;9205;52.032;4.314;2023-06-26T01:22:02;101229.84;;;22.80
18161;BMP280;9205;52.032;4.314;2023-06-26T01:24:37;101219.56;;;22.78
18161;BMP280;9205;52.032;4.314;2023-06-26T01:27:09;101215.13;;;22.80
18161;BMP280;9205;52.032;4.314;2023-06-26T01:29:38;101219.38;;;22.81
18161;BMP280;9205;52.032;4.314;2023-06-26T01:32:11;101210.88;;;22.79
18161;BMP280;9205;52.032;4.314;2023-06-26T01:34:41;101218.03;;;22.76
18161;BMP280;9205;52.032;4.314;2023-06-26T01:37:09;101222.88;;;22.68
18161;BMP280;9205;52.032;4.314;2023-06-26T01:39:36;101230.22;;;22.61
18161;BMP280;9205;52.032;4.314;2023-06-26T01:42:05;101226.78;;;22.61
18161;BMP280;9205;52.032;4.314;2023-06-26T01:44:38;101211.31;;;22.47
18161;BMP280;9205;52.032;4.314;2023-06-26T01:47:12;101214.09;;;22.44
18161;BMP280;9205;52.032;4.314;2023-06-26T01:49:49;101226.97;;;22.45
18161;BMP280;9205;52.032;4.314;2023-06-26T01:52:24;101215.25;;;22.40
18161;BMP280;9205;52.032;4.314;2023-06-26T01:55:01;101228.06;;;22.41
18161;BMP280;9205;52.032;4.314;2023-06-26T01:57:31;101228.09;;;22.27
18161;BMP280;9205;52.032;4.314;2023-06-26T02:00:02;101228.66;;;22.32
18161;BMP280;9205;52.032;4.314;2023-06-26T02:02:41;101224.50;;;22.30
18161;BMP280;9205;52.032;4.314;2023-06-26T02:05:08;101237.38;;;22.31
18161;BMP280;9205;52.032;4.314;2023-06-26T02:07:37;101238.19;;;22.18
18161;BMP280;9205;52.032;4.314;2023-06-26T02:10:06;101228.41;;;22.09
18161;BMP280;9205;52.032;4.314;2023-06-26T02:12:35;101238.94;;;22.06
18161;BMP280;9205;52.032;4.314;2023-06-26T02:15:05;101232.50;;;21.99
18161;BMP280;9205;52.032;4.314;2023-06-26T02:17:34;101246.28;;;22.00
18161;BMP280;9205;52.032;4.314;2023-06-26T02:20:01;101235.28;;;21.96
18161;BMP280;9205;52.032;4.314;2023-06-26T02:22:31;101244.16;;;21.92
18161;BMP280;9205;52.032;4.314;2023-06-26T02:24:59;101249.31;;;21.92
18161;BMP280;9205;52.032;4.314;2023-06-26T02:27:26;101245.91;;;21.92
18161;BMP280;9205;52.032;4.314;2023-06-26T02:29:53;101244.25;;;21.91
18161;BMP280;9205;52.032;4.314;2023-06-26T02:32:22;101253.22;;;21.85
18161;BMP280;9205;52.032;4.314;2023-06-26T02:34:50;101258.56;;;21.82
18161;BMP280;9205;52.032;4.314;2023-06-26T02:37:18;101253.50;;;21.67
18161;BMP280;9205;52.032;4.314;2023-06-26T02:39:46;101257.47;;;21.58
18161;BMP280;9205;52.032;4.314;2023-06-26T02:42:13;101262.03;;;21.53
18161;BMP280;9205;52.032;4.314;2023-06-26T02:44:41;101255.56;;;21.46
18161;BMP280;9205;52.032;4.314;2023-06-26T02:47:09;101264.63;;;21.39
18161;BMP280;9205;52.032;4.314;2023-06-26T02:49:41;101268.38;;;21.34
18161;BMP280;9205;52.032;4.314;2023-06-26T02:52:09;101266.81;;;21.31
18161;BMP280;9205;52.032;4.314;2023-06-26T02:54:36;101284.91;;;21.31
18161;BMP280;9205;52.032;4.314;2023-06-26T02:57:05;101274.41;;;21.34
18161;BMP280;9205;52.032;4.314;2023-06-26T02:59:34;101292.41;;;21.36
18161;BMP280;9205;52.032;4.314;2023-06-26T03:02:01;101289.31;;;21.29
18161;BMP280;9205;52.032;4.314;2023-06-26T03:04:41;101288.25;;;21.33
18161;BMP280;9205;52.032;4.314;2023-06-26T03:07:11;101282.50;;;21.28
18161;BMP280;9205;52.032;4.314;2023-06-26T03:09:40;101291.19;;;21.27
18161;BMP280;9205;52.032;4.314;2023-06-26T03:12:09;101287.28;;;21.21
18161;BMP280;9205;52.032;4.314;2023-06-26T03:14:36;101295.22;;;21.18
18161;BMP280;9205;52.032;4.314;2023-06-26T03:17:08;101305.06;;;21.11
18161;BMP280;9205;52.032;4.314;2023-06-26T03:19:37;101302.03;;;21.19
18161;BMP280;9205;52.032;4.314;2023-06-26T03:22:20;101305.16;;;21.10
18161;BMP280;9205;52.032;4.314;2023-06-26T03:24:48;101300.09;;;21.08
18161;BMP280;9205;52.032;4.314;2023-06-26T03:27:16;101313.47;;;21.15
18161;BMP280;9205;52.032;4.314;2023-06-26T03:29:44;101314.88;;;21.20
18161;BMP280;9205;52.032;4.314;2023-06-26T03:32:12;101300.19;;;21.21
18161;BMP280;9205;52.032;4.314;2023-06-26T03:34:40;101302.78;;;21.21
18161;BMP280;9205;52.032;4.314;2023-06-26T03:37:07;101301.13;;;21.20
18161;BMP280;9205;52.032;4.314;2023-06-26T03:39:36;101305.81;;;21.13
18161;BMP280;9205;52.032;4.314;2023-06-26T03:42:04;101299.50;;;21.03
18161;BMP280;9205;52.032;4.314;2023-06-26T03:44:32;101308.09;;;21.04
18161;BMP280;9205;52.032;4.314;2023-06-26T03:47:00;101320.75;;;21.08
18161;BMP280;9205;52.032;4.314;2023-06-26T03:49:27;101314.91;;;21.05
18161;BMP280;9205;52.032;4.314;2023-06-26T03:51:54;101314.19;;;21.03
18161;BMP280;9205;52.032;4.314;2023-06-26T03:54:22;101324.16;;;21.09
18161;BMP280;9205;52.032;4.314;2023-06-26T03:56:50;101327.00;;;21.04
18161;BMP280;9205;52.032;4.314;2023-06-26T03:59:18;101341.66;;;21.04
18161;BMP280;9205;52.032;4.314;2023-06-26T04:01:45;101339.81;;;21.06
18161;BMP280;9205;52.032;4.314;2023-06-26T04:04:13;101348.56;;;21.03
18161;BMP280;9205;52.032;4.314;2023-06-26T04:06:41;101352.91;;;21.03
18161;BMP280;9205;52.032;4.314;2023-06-26T04:09:08;101359.00;;;21.02
18161;BMP280;9205;52.032;4.314;2023-06-26T04:11:36;101369.53;;;21.13
18161;BMP280;9205;52.032;4.314;2023-06-26T04:14:05;101374.72;;;21.13
18161;BMP280;9205;52.032;4.314;2023-06-26T04:16:35;101366.13;;;21.12
18161;BMP280;9205;52.032;4.314;2023-06-26T04:19:03;101369.63;;;21.11
18161;BMP280;9205;52.032;4.314;2023-06-26T04:21:31;101370.81;;;21.06
18161;BMP280;9205;52.032;4.314;2023-06-26T04:23:58;101380.72;;;20.98
18161;BMP280;9205;52.032;4.314;2023-06-26T04:26:30;101386.34;;;20.90
18161;BMP280;9205;52.032;4.314;2023-06-26T04:28:57;101385.41;;;20.91
18161;BMP280;9205;52.032;4.314;2023-06-26T04:31:26;101387.56;;;20.99
18161;BMP280;9205;52.032;4.314;2023-06-26T04:33:54;101386.09;;;20.95
18161;BMP280;9205;52.032;4.314;2023-06-26T04:36:22;101387.25;;;20.89
18161;BMP280;9205;52.032;4.314;2023-06-26T04:38:49;101393.31;;;20.88
18161;BMP280;9205;52.032;4.314;2023-06-26T04:41:17;101390.34;;;20.96
18161;BMP280;9205;52.032;4.314;2023-06-26T04:43:44;101403.00;;;20.85
18161;BMP280;9205;52.032;4.314;2023-06-26T04:46:11;101402.91;;;20.86
18161;BMP280;9205;52.032;4.314;2023-06-26T04:48:40;101402.66;;;20.91
18161;BMP280;9205;52.032;4.314;2023-06-26T04:51:10;101407.50;;;20.97
18161;BMP280;9205;52.032;4.314;2023-06-26T04:53:37;101413.34;;;21.00
18161;BMP280;9205;52.032;4.314;2023-06-26T04:56:05;101408.06;;;21.02
18161;BMP280;9205;52.032;4.314;2023-06-26T04:58:33;101405.84;;;20.96
18161;BMP280;9205;52.032;4.314;2023-06-26T05:01:00;101420.56;;;20.94
18161;BMP280;9205;52.032;4.314;2023-06-26T05:03:27;101423.00;;;20.97
18161;BMP280;9205;52.032;4.314;2023-06-26T05:05:56;101436.47;;;21.02
18161;BMP280;9205;52.032;4.314;2023-06-26T05:08:25;101429.06;;;20.96
18161;BMP280;9205;52.032;4.314;2023-06-26T05:10:53;101438.06;;;20.89
18161;BMP280;9205;52.032;4.314;2023-06-26T05:13:24;101443.41;;;20.86
18161;BMP280;9205;52.032;4.314;2023-06-26T05:15:52;101444.00;;;20.74
18161;BMP280;9205;52.032;4.314;2023-06-26T05:18:22;101446.47;;;20.77
18161;BMP280;9205;52.032;4.314;2023-06-26T05:20:50;101458.88;;;20.86
18161;BMP280;9205;52.032;4.314;2023-06-26T05:23:20;101457.72;;;20.91
18161;BMP280;9205;52.032;4.314;2023-06-26T05:25:48;101465.13;;;20.82
18161;BMP280;9205;52.032;4.314;2023-06-26T05:28:16;101470.47;;;20.79
18161;BMP280;9205;52.032;4.314;2023-06-26T05:30:44;101468.69;;;20.79
18161;BMP280;9205;52.032;4.314;2023-06-26T05:33:17;101467.97;;;20.77
18161;BMP280;9205;52.032;4.314;2023-06-26T05:35:46;101493.84;;;20.76
18161;BMP280;9205;52.032;4.314;2023-06-26T05:38:15;101499.63;;;20.64
18161;BMP280;9205;52.032;4.314;2023-06-26T05:40:45;101496.44;;;20.59
18161;BMP280;9205;52.032;4.314;2023-06-26T05:43:13;101490.06;;;20.66
18161;BMP280;9205;52.032;4.314;2023-06-26T05:45:41;101516.63;;;20.68
18161;BMP280;9205;52.032;4.314;2023-06-26T05:48:09;101509.13;;;20.63
18161;BMP280;9205;52.032;4.314;2023-06-26T05:50:37;101509.84;;;20.50
18161;BMP280;9205;52.032;4.314;2023-06-26T05:53:08;101505.06;;;20.43
18161;BMP280;9205;52.032;4.314;2023-06-26T05:55:37;101500.59;;;20.46
18161;BMP280;9205;52.032;4.314;2023-06-26T05:58:07;101494.91;;;20.40
18161;BMP280;9205;52.032;4.314;2023-06-26T06:00:38;101502.63;;;20.40
18161;BMP280;9205;52.032;4.314;2023-06-26T06:03:06;101503.66;;;20.20
18161;BMP280;9205;52.032;4.314;2023-06-26T06:05:37;101518.75;;;20.11
18161;BMP280;9205;52.032;4.314;2023-06-26T06:08:07;101509.88;;;20.16
18161;BMP280;9205;52.032;4.314;2023-06-26T06:10:34;101515.03;;;20.16
18161;BMP280;9205;52.032;4.314;2023-06-26T06:13:08;101524.00;;;20.26
18161;BMP280;9205;52.032;4.314;2023-06-26T06:15:36;101523.81;;;20.29
18161;BMP280;9205;52.032;4.314;2023-06-26T06:18:03;101522.59;;;20.36
18161;BMP280;9205;52.032;4.314;2023-06-26T06:20:30;101531.66;;;20.28
18161;BMP280;9205;52.032;4.314;2023-06-26T06:22:58;101519.34;;;20.33
18161;BMP280;9205;52.032;4.314;2023-06-26T06:25:25;101526.34;;;20.31
18161;BMP280;9205;52.032;4.314;2023-06-26T06:27:53;101539.47;;;20.26
18161;BMP280;9205;52.032;4.314;2023-06-26T06:30:22;101547.97;;;20.28
18161;BMP280;9205;52.032;4.314;2023-06-26T06:32:49;101549.94;;;20.23
18161;BMP280;9205;52.032;4.314;2023-06-26T06:35:19;101550.09;;;20.20
18161;BMP280;9205;52.032;4.314;2023-06-26T06:37:46;101555.91;;;20.24
18161;BMP280;9205;52.032;4.314;2023-06-26T06:40:15;101573.81;;;20.10
18161;BMP280;9205;52.032;4.314;2023-06-26T06:42:42;101564.81;;;20.01
18161;BMP280;9205;52.032;4.314;2023-06-26T06:45:10;101574.63;;;19.93
18161;BMP280;9205;52.032;4.314;2023-06-26T06:47:41;101577.78;;;19.81
18161;BMP280;9205;52.032;4.314;2023-06-26T06:50:09;101576.88;;;19.82
18161;BMP280;9205;52.032;4.314;2023-06-26T06:52:37;101587.94;;;19.84
18161;BMP280;9205;52.032;4.314;2023-06-26T06:55:08;101591.38;;;19.85
18161;BMP280;9205;52.032;4.314;2023-06-26T06:57:37;101592.69;;;19.93
18161;BMP280;9205;52.032;4.314;2023-06-26T07:00:09;101589.50;;;19.88
18161;BMP280;9205;52.032;4.314;2023-06-26T07:02:37;101596.66;;;20.00
18161;BMP280;9205;52.032;4.314;2023-06-26T07:05:06;101594.09;;;20.00
18161;BMP280;9205;52.032;4.314;2023-06-26T07:07:36;101594.31;;;19.96
18161;BMP280;9205;52.032;4.314;2023-06-26T07:10:06;101600.06;;;20.01
18161;BMP280;9205;52.032;4.314;2023-06-26T07:12:35;101591.97;;;20.08
18161;BMP280;9205;52.032;4.314;2023-06-26T07:15:05;101605.47;;;20.13
18161;BMP280;9205;52.032;4.314;2023-06-26T07:17:34;101608.03;;;20.13
18161;BMP280;9205;52.032;4.314;2023-06-26T07:20:06;101614.81;;;20.16
18161;BMP280;9205;52.032;4.314;2023-06-26T07:22:34;101620.91;;;20.15
18161;BMP280;9205;52.032;4.314;2023-06-26T07:25:02;101616.94;;;20.08
18161;BMP280;9205;52.032;4.314;2023-06-26T07:27:29;101615.78;;;20.13
18161;BMP280;9205;52.032;4.314;2023-06-26T07:29:59;101614.28;;;20.09
18161;BMP280;9205;52.032;4.314;2023-06-26T07:32:27;101628.09;;;20.08
18161;BMP280;9205;52.032;4.314;2023-06-26T07:34:54;101624.22;;;20.17
18161;BMP280;9205;52.032;4.314;2023-06-26T07:37:23;101636.84;;;20.23
18161;BMP280;9205;52.032;4.314;2023-06-26T07:39:50;101631.91;;;20.35
18161;BMP280;9205;52.032;4.314;2023-06-26T07:42:18;101630.31;;;20.16
18161;BMP280;9205;52.032;4.314;2023-06-26T07:44:45;101643.13;;;20.17
18161;BMP280;9205;52.032;4.314;2023-06-26T07:47:13;101639.47;;;20.21
18161;BMP280;9205;52.032;4.314;2023-06-26T07:49:40;101653.97;;;20.24
18161;BMP280;9205;52.032;4.314;2023-06-26T07:52:08;101649.97;;;20.18
18161;BMP280;9205;52.032;4.314;2023-06-26T07:54:39;101652.59;;;20.17
18161;BMP280;9205;52.032;4.314;2023-06-26T07:57:07;101655.25;;;20.15
18161;BMP280;9205;52.032;4.314;2023-06-26T07:59:35;101659.41;;;20.18
18161;BMP280;9205;52.032;4.314;2023-06-26T08:02:07;101669.16;;;20.30
18161;BMP280;9205;52.032;4.314;2023-06-26T08:04:35;101662.03;;;20.35
18161;BMP280;9205;52.032;4.314;2023-06-26T08:07:04;101665.06;;;20.43
18161;BMP280;9205;52.032;4.314;2023-06-26T08:09:32;101657.47;;;20.40
18161;BMP280;9205;52.032;4.314;2023-06-26T08:12:03;101657.09;;;20.47
18161;BMP280;9205;52.032;4.314;2023-06-26T08:14:38;101662.34;;;20.46
18161;BMP280;9205;52.032;4.314;2023-06-26T08:17:06;101671.00;;;20.45
18161;BMP280;9205;52.032;4.314;2023-06-26T08:19:33;101670.00;;;20.47
18161;BMP280;9205;52.032;4.314;2023-06-26T08:22:01;101678.38;;;20.35
18161;BMP280;9205;52.032;4.314;2023-06-26T08:24:28;101667.75;;;20.41
18161;BMP280;9205;52.032;4.314;2023-06-26T08:26:56;101674.41;;;20.45
18161;BMP280;9205;52.032;4.314;2023-06-26T08:29:26;101686.63;;;20.42
18161;BMP280;9205;52.032;4.314;2023-06-26T08:31:54;101677.84;;;20.46
18161;BMP280;9205;52.032;4.314;2023-06-26T08:34:24;101674.09;;;20.51
18161;BMP280;9205;52.032;4.314;2023-06-26T08:36:52;101679.91;;;20.73
18161;BMP280;9205;52.032;4.314;2023-06-26T08:39:24;101689.94;;;20.79
18161;BMP280;9205;52.032;4.314;2023-06-26T08:41:53;101693.97;;;20.84
18161;BMP280;9205;52.032;4.314;2023-06-26T08:44:21;101700.50;;;20.91
18161;BMP280;9205;52.032;4.314;2023-06-26T08:46:52;101692.44;;;20.80
18161;BMP280;9205;52.032;4.314;2023-06-26T08:49:32;101705.34;;;20.80
18161;BMP280;9205;52.032;4.314;2023-06-26T08:52:12;101702.69;;;20.82
18161;BMP280;9205;52.032;4.314;2023-06-26T08:54:46;101692.03;;;20.71
18161;BMP280;9205;52.032;4.314;2023-06-26T08:57:19;101698.41;;;20.64
18161;BMP280;9205;52.032;4.314;2023-06-26T08:59:48;101699.09;;;20.67
18161;BMP280;9205;52.032;4.314;2023-06-26T09:02:17;101700.16;;;20.63
18161;BMP280;9205;52.032;4.314;2023-06-26T09:04:48;101709.13;;;20.73
18161;BMP280;9205;52.032;4.314;2023-06-26T09:07:16;101710.75;;;20.76
18161;BMP280;9205;52.032;4.314;2023-06-26T09:09:44;101705.53;;;20.77
18161;BMP280;9205;52.032;4.314;2023-06-26T09:12:13;101723.50;;;20.79
18161;BMP280;9205;52.032;4.314;2023-06-26T09:14:42;101731.09;;;20.82
18161;BMP280;9205;52.032;4.314;2023-06-26T09:17:10;101729.94;;;20.87
18161;BMP280;9205;52.032;4.314;2023-06-26T09:19:41;101731.75;;;20.85
18161;BMP280;9205;52.032;4.314;2023-06-26T09:22:14;101731.75;;;20.85
18161;BMP280;9205;52.032;4.314;2023-06-26T09:24:43;101735.28;;;20.84
18161;BMP280;9205;52.032;4.314;2023-06-26T09:27:11;101733.31;;;20.89
18161;BMP280;9205;52.032;4.314;2023-06-26T09:29:39;101739.00;;;20.79
18161;BMP280;9205;52.032;4.314;2023-06-26T09:32:08;101751.69;;;20.83
18161;BMP280;9205;52.032;4.314;2023-06-26T09:34:36;101744.69;;;20.85
18161;BMP280;9205;52.032;4.314;2023-06-26T09:37:07;101757.16;;;20.77
18161;BMP280;9205;52.032;4.314;2023-06-26T09:39:37;101762.06;;;20.82
18161;BMP280;9205;52.032;4.314;2023-06-26T09:42:05;101763.69;;;20.84
18161;BMP280;9205;52.032;4.314;2023-06-26T09:44:33;101763.63;;;20.86
18161;BMP280;9205;52.032;4.314;2023-06-26T09:47:02;101759.69;;;20.96
18161;BMP280;9205;52.032;4.314;2023-06-26T09:49:31;101766.13;;;21.04
18161;BMP280;9205;52.032;4.314;2023-06-26T09:52:02;101766.94;;;21.05
18161;BMP280;9205;52.032;4.314;2023-06-26T09:54:33;101772.59;;;20.96
18161;BMP280;9205;52.032;4.314;2023-06-26T09:57:08;101778.44;;;20.99
18161;BMP280;9205;52.032;4.314;2023-06-26T09:59:35;101784.19;;;20.87
18161;BMP280;9205;52.032;4.314;2023-06-26T10:02:04;101779.59;;;20.75
18161;BMP280;9205;52.032;4.314;2023-06-26T10:04:32;101786.50;;;20.75
18161;BMP280;9205;52.032;4.314;2023-06-26T10:07:05;101788.06;;;20.79
18161;BMP280;9205;52.032;4.314;2023-06-26T10:09:37;101782.19;;;20.75
18161;BMP280;9205;52.032;4.314;2023-06-26T10:12:12;101786.25;;;20.81
18161;BMP280;9205;52.032;4.314;2023-06-26T10:14:45;101773.50;;;20.95
18161;BMP280;9205;52.032;4.314;2023-06-26T10:17:19;101784.75;;;21.11
18161;BMP280;9205;52.032;4.314;2023-06-26T10:19:48;101790.94;;;21.24
18161;BMP280;9205;52.032;4.314;2023-06-26T10:22:18;101786.91;;;21.18
18161;BMP280;9205;52.032;4.314;2023-06-26T10:24:50;101792.31;;;21.14
18161;BMP280;9205;52.032;4.314;2023-06-26T10:27:20;101795.44;;;21.20
18161;BMP280;9205;52.032;4.314;2023-06-26T10:30:04;101811.31;;;21.29
18161;BMP280;9205;52.032;4.314;2023-06-26T10:32:33;101823.78;;;21.38
18161;BMP280;9205;52.032;4.314;2023-06-26T10:35:01;101823.47;;;21.44
18161;BMP280;9205;52.032;4.314;2023-06-26T10:37:45;101825.91;;;21.64
18161;BMP280;9205;52.032;4.314;2023-06-26T10:40:21;101826.28;;;21.57
18161;BMP280;9205;52.032;4.314;2023-06-26T10:42:48;101825.00;;;21.65
18161;BMP280;9205;52.032;4.314;2023-06-26T10:45:20;101821.63;;;21.80
18161;BMP280;9205;52.032;4.314;2023-06-26T10:47:52;101815.44;;;21.98
18161;BMP280;9205;52.032;4.314;2023-06-26T10:50:23;101815.56;;;22.12
18161;BMP280;9205;52.032;4.314;2023-06-26T10:53:12;101819.94;;;22.42
18161;BMP280;9205;52.032;4.314;2023-06-26T10:55:50;101828.22;;;22.33
18161;BMP280;9205;52.032;4.314;2023-06-26T10:58:29;101836.53;;;22.85
18161;BMP280;9205;52.032;4.314;2023-06-26T11:01:20;101829.59;;;23.30
18161;BMP280;9205;52.032;4.314;2023-06-26T11:03:59;101838.06;;;23.02
18161;BMP280;9205;52.032;4.314;2023-06-26T11:06:30;101846.03;;;23.15
18161;BMP280;9205;52.032;4.314;2023-06-26T11:09:09;101841.00;;;23.41
18161;BMP280;9205;52.032;4.314;2023-06-26T11:11:59;101852.97;;;23.28
18161;BMP280;9205;52.032;4.314;2023-06-26T11:14:32;101862.75;;;23.09
18161;BMP280;9205;52.032;4.314;2023-06-26T11:17:03;101856.16;;;23.33
18161;BMP280;9205;52.032;4.314;2023-06-26T11:19:31;101866.78;;;23.29
18161;BMP280;9205;52.032;4.314;2023-06-26T11:22:02;101861.84;;;23.54
18161;BMP280;9205;52.032;4.314;2023-06-26T11:24:30;101858.38;;;23.82
18161;BMP280;9205;52.032;4.314;2023-06-26T11:27:05;101859.97;;;24.13
18161;BMP280;9205;52.032;4.314;2023-06-26T11:29:33;101877.75;;;24.19
18161;BMP280;9205;52.032;4.314;2023-06-26T11:32:03;101861.97;;;24.22
18161;BMP280;9205;52.032;4.314;2023-06-26T11:34:33;101880.72;;;24.27
18161;BMP280;9205;52.032;4.314;2023-06-26T11:37:04;101873.13;;;24.10
18161;BMP280;9205;52.032;4.314;2023-06-26T11:39:34;101882.19;;;24.17
18161;BMP280;9205;52.032;4.314;2023-06-26T11:42:07;101881.28;;;24.18
18161;BMP280;9205;52.032;4.314;2023-06-26T11:44:41;101869.47;;;24.26
18161;BMP280;9205;52.032;4.314;2023-06-26T11:47:14;101892.38;;;24.34
18161;BMP280;9205;52.032;4.314;2023-06-26T11:49:46;101884.50;;;24.49
18161;BMP280;9205;52.032;4.314;2023-06-26T11:52:14;101879.75;;;24.55
18161;BMP280;9205;52.032;4.314;2023-06-26T11:54:43;101874.31;;;24.32
18161;BMP280;9205;52.032;4.314;2023-06-26T11:57:16;101891.66;;;24.18
18161;BMP280;9205;52.032;4.314;2023-06-26T12:00:11;101889.88;;;24.04
18161;BMP280;9205;52.032;4.314;2023-06-26T12:02:44;101901.84;;;23.79
18161;BMP280;9205;52.032;4.314;2023-06-26T12:05:12;101910.09;;;23.56
18161;BMP280;9205;52.032;4.314;2023-06-26T12:07:42;101921.31;;;23.70
18161;BMP280;9205;52.032;4.314;2023-06-26T12:10:11;101922.88;;;23.88
18161;BMP280;9205;52.032;4.314;2023-06-26T12:12:41;101912.59;;;23.87
18161;BMP280;9205;52.032;4.314;2023-06-26T12:15:14;101923.50;;;23.78
18161;BMP280;9205;52.032;4.314;2023-06-26T12:17:42;101922.19;;;23.71
18161;BMP280;9205;52.032;4.314;2023-06-26T12:20:20;101926.00;;;23.79
18161;BMP280;9205;52.032;4.314;2023-06-26T12:22:49;101925.22;;;24.07
18161;BMP280;9205;52.032;4.314;2023-06-26T12:25:22;101922.03;;;24.30
18161;BMP280;9205;52.032;4.314;2023-06-26T12:27:51;101919.09;;;24.36
18161;BMP280;9205;52.032;4.314;2023-06-26T12:30:19;101929.75;;;24.31
18161;BMP280;9205;52.032;4.314;2023-06-26T12:32:48;101925.69;;;24.55
18161;BMP280;9205;52.032;4.314;2023-06-26T12:35:15;101918.97;;;24.65
18161;BMP280;9205;52.032;4.314;2023-06-26T12:37:44;101921.03;;;24.60
18161;BMP280;9205;52.032;4.314;2023-06-26T12:40:18;101923.72;;;24.45
18161;BMP280;9205;52.032;4.314;2023-06-26T12:42:48;101927.44;;;24.27
18161;BMP280;9205;52.032;4.314;2023-06-26T12:45:25;101930.31;;;24.08
18161;BMP280;9205;52.032;4.314;2023-06-26T12:47:54;101932.06;;;24.08
18161;BMP280;9205;52.032;4.314;2023-06-26T12:50:25;101939.41;;;24.29
18161;BMP280;9205;52.032;4.314;2023-06-26T12:52:52;101936.53;;;24.48
18161;BMP280;9205;52.032;4.314;2023-06-26T12:55:21;101940.78;;;24.62
18161;BMP280;9205;52.032;4.314;2023-06-26T12:57:49;101944.13;;;24.64
18161;BMP280;9205;52.032;4.314;2023-06-26T13:00:19;101952.59;;;24.54
18161;BMP280;9205;52.032;4.314;2023-06-26T13:02:48;101944.41;;;24.60
18161;BMP280;9205;52.032;4.314;2023-06-26T13:05:19;101935.03;;;24.71
18161;BMP280;9205;52.032;4.314;2023-06-26T13:07:47;101933.75;;;24.91
18161;BMP280;9205;52.032;4.314;2023-06-26T13:10:15;101928.38;;;24.94
18161;BMP280;9205;52.032;4.314;2023-06-26T13:12:43;101938.44;;;24.86
18161;BMP280;9205;52.032;4.314;2023-06-26T13:15:12;101915.84;;;24.86
18161;BMP280;9205;52.032;4.314;2023-06-26T13:17:40;101908.75;;;25.02
18161;BMP280;9205;52.032;4.314;2023-06-26T13:20:11;101907.97;;;25.14
18161;BMP280;9205;52.032;4.314;2023-06-26T13:22:39;101914.25;;;25.24
18161;BMP280;9205;52.032;4.314;2023-06-26T13:25:08;101923.56;;;25.14
18161;BMP280;9205;52.032;4.314;2023-06-26T13:27:35;101905.50;;;25.25
18161;BMP280;9205;52.032;4.314;2023-06-26T13:30:03;101898.50;;;25.39
18161;BMP280;9205;52.032;4.314;2023-06-26T13:32:31;101902.03;;;25.51
18161;BMP280;9205;52.032;4.314;2023-06-26T13:34:58;101914.41;;;25.35
18161;BMP280;9205;52.032;4.314;2023-06-26T13:37:27;101915.75;;;25.53
18161;BMP280;9205;52.032;4.314;2023-06-26T13:40:00;101927.09;;;25.13
18161;BMP280;9205;52.032;4.314;2023-06-26T13:42:28;101928.19;;;25.23
18161;BMP280;9205;52.032;4.314;2023-06-26T13:44:56;101947.19;;;25.11
18161;BMP280;9205;52.032;4.314;2023-06-26T13:47:24;101938.66;;;25.09
18161;BMP280;9205;52.032;4.314;2023-06-26T13:49:52;101939.53;;;25.08
18161;BMP280;9205;52.032;4.314;2023-06-26T13:52:19;101947.88;;;25.27
18161;BMP280;9205;52.032;4.314;2023-06-26T13:54:50;101943.72;;;25.25
18161;BMP280;9205;52.032;4.314;2023-06-26T13:57:18;101933.72;;;25.31
18161;BMP280;9205;52.032;4.314;2023-06-26T13:59:45;101928.34;;;25.46
18161;BMP280;9205;52.032;4.314;2023-06-26T14:02:13;101930.97;;;25.71
18161;BMP280;9205;52.032;4.314;2023-06-26T14:04:41;101941.66;;;25.81
18161;BMP280;9205;52.032;4.314;2023-06-26T14:07:09;101933.72;;;25.82
18161;BMP280;9205;52.032;4.314;2023-06-26T14:09:37;101926.34;;;25.89
18161;BMP280;9205;52.032;4.314;2023-06-26T14:12:08;101933.38;;;25.74
18161;BMP280;9205;52.032;4.314;2023-06-26T14:14:36;101934.31;;;25.73
18161;BMP280;9205;52.032;4.314;2023-06-26T14:17:04;101932.50;;;25.88
18161;BMP280;9205;52.032;4.314;2023-06-26T14:19:36;101937.38;;;25.80
18161;BMP280;9205;52.032;4.314;2023-06-26T14:22:04;101935.97;;;25.74